createdAt,value
2023-04-26T00:02:02.164Z,8.90
2023-04-26T00:04:29.789Z,9.07
2023-04-26T00:06:57.299Z,7.03
2023-04-26T00:09:24.347Z,9.55
2023-04-26T00:11:51.736Z,9.32
2023-04-26T00:14:18.745Z,8.88
2023-04-26T00:16:45.733Z,7.65
2023-04-26T00:19:13.607Z,8.80
2023-04-26T00:21:40.642Z,8.75
2023-04-26T00:24:07.995Z,7.47
2023-04-26T00:26:35.348Z,8.70
2023-04-26T00:29:04.053Z,8.25
2023-04-26T00:31:31.359Z,9.52
2023-04-26T00:33:58.390Z,7.68
2023-04-26T00:36:26.332Z,10.40
2023-04-26T00:38:53.554Z,11.82
2023-04-26T00:41:20.914Z,12.88
2023-04-26T00:43:47.817Z,12.50
2023-04-26T00:46:15.268Z,15.13
2023-04-26T00:48:42.766Z,12.25
2023-04-26T00:51:10.130Z,11.63
2023-04-26T00:53:37.082Z,12.07
2023-04-26T00:56:06.667Z,10.55
2023-04-26T00:58:33.768Z,12.45
2023-04-26T01:01:00.833Z,10.77
2023-04-26T01:03:28.395Z,10.25
2023-04-26T01:05:55.924Z,10.85
2023-04-26T01:08:23.873Z,10.63
2023-04-26T01:10:51.945Z,10.32
2023-04-26T01:13:18.907Z,11.18
2023-04-26T01:15:48.479Z,9.75
2023-04-26T01:18:15.550Z,9.38
2023-04-26T01:20:43.008Z,9.38
2023-04-26T01:23:11.721Z,11.10
2023-04-26T01:25:39.246Z,9.95
2023-04-26T01:28:06.328Z,12.23
2023-04-26T01:30:33.381Z,13.07
2023-04-26T01:33:03.639Z,13.27
2023-04-26T01:35:30.570Z,19.02
2023-04-26T01:37:57.468Z,23.00
2023-04-26T01:40:24.447Z,36.67
2023-04-26T01:42:51.565Z,26.33
2023-04-26T01:45:18.616Z,20.02
2023-04-26T01:48:04.434Z,19.08
2023-04-26T01:50:33.016Z,24.13
2023-04-26T01:52:59.928Z,12.27
2023-04-26T01:55:26.908Z,14.60
2023-04-26T01:57:53.851Z,13.88
2023-04-26T02:00:20.827Z,13.85
2023-04-26T02:02:49.805Z,12.18
2023-04-26T02:05:16.916Z,13.10
2023-04-26T02:07:43.854Z,11.13
2023-04-26T02:10:10.907Z,10.98
2023-04-26T02:12:37.906Z,11.57
2023-04-26T02:15:06.266Z,11.95
2023-04-26T02:17:34.785Z,10.85
2023-04-26T02:20:01.800Z,10.63
2023-04-26T02:22:29.614Z,11.13
2023-04-26T02:24:56.592Z,12.35
2023-04-26T02:27:28.128Z,10.65
2023-04-26T02:29:55.379Z,10.43
2023-04-26T02:32:22.349Z,10.77
2023-04-26T02:34:49.706Z,10.63
2023-04-26T02:37:16.691Z,10.85
2023-04-26T02:39:43.700Z,11.80
2023-04-26T02:42:10.984Z,10.98
2023-04-26T02:44:39.640Z,9.70
2023-04-26T02:47:07.103Z,11.75
2023-04-26T02:49:34.106Z,11.95
2023-04-26T02:52:01.172Z,10.05
2023-04-26T02:54:29.317Z,11.57
2023-04-26T02:56:58.106Z,10.65
2023-04-26T02:59:25.423Z,10.05
2023-04-26T03:01:52.563Z,12.40
2023-04-26T03:04:19.687Z,10.73
2023-04-26T03:06:46.667Z,10.13
2023-04-26T03:09:13.596Z,11.68
2023-04-26T03:11:42.023Z,10.68
2023-04-26T03:14:09.085Z,10.77
2023-04-26T03:16:43.304Z,10.68
2023-04-26T03:19:10.355Z,11.95
2023-04-26T03:21:38.771Z,10.65
2023-04-26T03:24:06.884Z,9.68
2023-04-26T03:26:34.035Z,10.43
2023-04-26T03:29:02.288Z,10.77
2023-04-26T03:31:29.831Z,15.55
2023-04-26T03:33:56.984Z,10.60
2023-04-26T03:36:23.949Z,11.05
2023-04-26T03:38:51.947Z,11.20
2023-04-26T03:41:20.580Z,10.48
2023-04-26T03:43:47.788Z,10.77
2023-04-26T03:46:14.844Z,10.43
2023-04-26T03:48:42.072Z,10.20
2023-04-26T03:51:09.021Z,11.27
2023-04-26T03:53:36.177Z,9.75
2023-04-26T03:56:03.275Z,10.13
2023-04-26T03:58:33.220Z,10.73
2023-04-26T04:01:00.817Z,11.77
2023-04-26T04:03:30.185Z,13.45
2023-04-26T04:05:57.331Z,13.63
2023-04-26T04:08:24.318Z,11.43
2023-04-26T04:10:51.505Z,12.10
2023-04-26T04:13:18.614Z,11.45
2023-04-26T04:15:45.558Z,11.38
2023-04-26T04:18:12.595Z,11.82
2023-04-26T04:20:41.397Z,12.48
2023-04-26T04:23:08.644Z,12.40
2023-04-26T04:25:36.744Z,13.45
2023-04-26T04:28:08.542Z,12.90
2023-04-26T04:30:37.255Z,12.63
2023-04-26T04:33:05.477Z,12.63
2023-04-26T04:35:34.316Z,11.07
2023-04-26T04:38:04.332Z,12.68
2023-04-26T04:40:32.136Z,13.40
2023-04-26T04:43:01.090Z,12.98
2023-04-26T04:45:29.719Z,12.25
2023-04-26T04:47:58.709Z,12.90
2023-04-26T04:50:26.862Z,13.18
2023-04-26T04:52:53.948Z,12.73
2023-04-26T04:55:20.923Z,15.40
2023-04-26T04:57:47.896Z,13.25
2023-04-26T05:00:15.845Z,13.85
2023-04-26T05:03:05.987Z,11.95
2023-04-26T05:05:33.030Z,11.75
2023-04-26T05:08:00.034Z,12.48
2023-04-26T05:10:27.187Z,14.10
2023-04-26T05:12:54.169Z,15.10
2023-04-26T05:15:21.210Z,12.02
2023-04-26T05:17:48.247Z,11.48
2023-04-26T05:20:22.151Z,11.75
2023-04-26T05:22:49.940Z,10.80
2023-04-26T05:25:17.703Z,11.60
2023-04-26T05:27:48.304Z,14.27
2023-04-26T05:30:20.649Z,10.52
2023-04-26T05:33:11.024Z,14.68
2023-04-26T05:36:01.569Z,12.75
2023-04-26T05:38:30.129Z,12.23
2023-04-26T05:40:57.132Z,11.25
2023-04-26T05:43:24.296Z,12.32
2023-04-26T05:45:56.946Z,12.15
2023-04-26T05:48:25.531Z,12.18
2023-04-26T05:50:52.656Z,11.18
2023-04-26T05:53:19.958Z,12.00
2023-04-26T05:55:47.604Z,14.20
2023-04-26T05:58:15.762Z,13.20
2023-04-26T06:00:43.240Z,13.52
2023-04-26T06:03:10.981Z,11.52
2023-04-26T06:05:38.674Z,12.85
2023-04-26T06:08:06.279Z,11.90
2023-04-26T06:10:33.401Z,11.82
2023-04-26T06:13:00.997Z,12.23
2023-04-26T06:15:31.966Z,12.55
2023-04-26T06:18:00.920Z,14.32
2023-04-26T06:20:28.535Z,17.55
2023-04-26T06:22:55.586Z,10.95
2023-04-26T06:25:23.281Z,15.65
2023-04-26T06:27:50.411Z,14.20
2023-04-26T06:30:17.551Z,12.35
2023-04-26T06:32:48.422Z,10.52
2023-04-26T06:35:15.564Z,9.43
2023-04-26T06:37:43.746Z,10.65
2023-04-26T06:40:14.020Z,10.48
2023-04-26T06:42:41.107Z,10.13
2023-04-26T06:45:17.132Z,11.55
2023-04-26T06:47:45.428Z,9.52
2023-04-26T06:50:13.286Z,11.65
2023-04-26T06:52:40.367Z,13.00
2023-04-26T06:55:07.876Z,13.75
2023-04-26T06:57:34.798Z,10.90
2023-04-26T07:00:01.716Z,10.23
2023-04-26T07:02:28.787Z,11.90
2023-04-26T07:04:56.213Z,9.63
2023-04-26T07:07:23.687Z,11.80
2023-04-26T07:09:50.648Z,11.63
2023-04-26T07:12:17.619Z,16.90
2023-04-26T07:14:44.690Z,9.27
2023-04-26T07:17:11.750Z,8.50
2023-04-26T07:19:38.872Z,10.18
2023-04-26T07:22:06.011Z,10.10
2023-04-26T07:24:33.238Z,10.60
2023-04-26T07:27:01.111Z,9.65
2023-04-26T07:29:28.058Z,10.50
2023-04-26T07:31:54.984Z,8.77
2023-04-26T07:34:21.901Z,10.13
2023-04-26T07:36:48.895Z,11.48
2023-04-26T07:39:15.942Z,13.73
2023-04-26T07:41:44.113Z,9.20
2023-04-26T07:44:11.479Z,8.07
2023-04-26T07:46:38.518Z,8.98
2023-04-26T07:49:05.970Z,6.20
2023-04-26T07:51:35.380Z,6.10
2023-04-26T07:54:02.331Z,6.25
2023-04-26T07:56:29.298Z,10.82
2023-04-26T07:58:56.401Z,7.95
2023-04-26T08:01:23.340Z,8.80
2023-04-26T08:03:50.446Z,9.18
2023-04-26T08:06:17.686Z,11.85
2023-04-26T08:08:49.173Z,8.90
2023-04-26T08:11:16.756Z,8.18
2023-04-26T08:13:46.730Z,6.55
2023-04-26T08:16:14.244Z,10.63
2023-04-26T08:18:41.838Z,6.53
2023-04-26T08:21:09.784Z,6.25
2023-04-26T08:23:36.862Z,7.75
2023-04-26T08:26:04.396Z,7.15
2023-04-26T08:28:31.507Z,8.73
2023-04-26T08:30:58.621Z,7.10
2023-04-26T08:33:26.232Z,6.93
2023-04-26T08:35:53.426Z,5.78
2023-04-26T08:38:22.763Z,5.32
2023-04-26T08:40:51.288Z,8.30
2023-04-26T08:43:18.267Z,5.30
2023-04-26T08:45:49.200Z,6.03
2023-04-26T08:48:18.365Z,5.05
2023-04-26T08:50:48.922Z,5.18
2023-04-26T08:53:19.813Z,7.07
2023-04-26T08:55:50.480Z,6.03
2023-04-26T08:58:18.290Z,5.18
2023-04-26T09:00:46.273Z,5.57
2023-04-26T09:03:13.854Z,8.05
2023-04-26T09:05:44.066Z,6.88
2023-04-26T09:08:16.354Z,7.93
2023-04-26T09:10:43.467Z,4.03
2023-04-26T09:13:11.339Z,6.45
2023-04-26T09:15:38.834Z,7.07
2023-04-26T09:18:22.904Z,5.40
2023-04-26T09:21:07.766Z,5.00
2023-04-26T09:23:35.731Z,5.65
2023-04-26T09:26:19.572Z,5.03
2023-04-26T09:28:47.601Z,4.40
2023-04-26T09:31:38.971Z,4.78
2023-04-26T09:34:06.622Z,4.70
2023-04-26T09:36:46.132Z,5.22
2023-04-26T09:39:13.263Z,4.00
2023-04-26T09:41:46.471Z,4.25
2023-04-26T09:44:23.428Z,5.53
2023-04-26T09:47:05.701Z,7.82
2023-04-26T09:49:44.598Z,7.18
2023-04-26T09:52:11.704Z,8.65
2023-04-26T09:54:39.647Z,4.93
2023-04-26T09:57:06.867Z,2.85
2023-04-26T09:59:41.225Z,4.35
2023-04-26T10:02:13.868Z,2.97
2023-04-26T10:04:47.071Z,4.18
2023-04-26T10:07:15.911Z,5.88
2023-04-26T10:09:43.320Z,4.43
2023-04-26T10:12:15.379Z,3.75
2023-04-26T10:14:44.339Z,4.13
2023-04-26T10:17:14.577Z,5.65
2023-04-26T10:19:46.601Z,6.20
2023-04-26T10:22:21.520Z,8.75
2023-04-26T10:24:49.512Z,9.05
2023-04-26T10:27:16.806Z,8.15
2023-04-26T10:29:56.515Z,6.45
2023-04-26T10:32:24.183Z,9.55
2023-04-26T10:35:12.223Z,7.43
2023-04-26T10:38:01.115Z,5.85
2023-04-26T10:40:40.196Z,6.38
2023-04-26T10:43:15.684Z,7.15
2023-04-26T10:45:44.406Z,6.55
2023-04-26T10:48:20.253Z,6.30
2023-04-26T10:51:01.203Z,9.93
2023-04-26T10:53:53.621Z,7.60
2023-04-26T10:56:24.136Z,5.78
2023-04-26T11:01:42.561Z,5.25
2023-04-26T11:04:11.382Z,5.55
2023-04-26T11:06:55.087Z,7.13
2023-04-26T11:09:48.135Z,24.52
2023-04-26T11:12:18.808Z,5.93
2023-04-26T11:14:46.338Z,5.80
2023-04-26T11:17:13.788Z,7.68
2023-04-26T11:19:47.311Z,5.10
2023-04-26T11:22:14.277Z,7.22
2023-04-26T11:24:42.823Z,6.95
2023-04-26T11:27:10.940Z,6.75
2023-04-26T11:29:38.622Z,6.15
2023-04-26T11:32:05.968Z,6.80
2023-04-26T11:34:38.264Z,4.50
2023-04-26T11:37:06.789Z,5.65
2023-04-26T11:39:34.490Z,6.88
2023-04-26T11:42:08.931Z,6.22
2023-04-26T11:44:37.415Z,6.63
2023-04-26T11:47:06.618Z,7.22
2023-04-26T11:49:35.582Z,5.47
2023-04-26T11:52:06.561Z,6.03
2023-04-26T11:54:35.084Z,5.88
2023-04-26T11:57:17.924Z,6.65
2023-04-26T11:59:45.910Z,5.22
2023-04-26T12:02:13.187Z,7.65
2023-04-26T12:04:41.497Z,6.07
2023-04-26T12:07:09.576Z,6.82
2023-04-26T12:09:41.338Z,6.25
2023-04-26T12:12:11.553Z,5.40
2023-04-26T12:14:40.624Z,5.15
2023-04-26T12:17:08.362Z,5.13
2023-04-26T12:19:36.943Z,5.90
2023-04-26T12:22:04.975Z,5.90
2023-04-26T12:24:39.144Z,7.60
2023-04-26T12:27:07.432Z,7.43
2023-04-26T12:29:35.171Z,6.03
2023-04-26T12:32:02.740Z,5.20
2023-04-26T12:34:29.944Z,5.15
2023-04-26T12:36:57.097Z,6.13
2023-04-26T12:39:24.029Z,6.10
2023-04-26T12:41:51.222Z,4.53
2023-04-26T12:44:20.452Z,6.47
2023-04-26T12:46:49.068Z,5.70
2023-04-26T12:49:16.096Z,6.97
2023-04-26T12:51:43.007Z,5.13
2023-04-26T12:54:10.006Z,6.35
2023-04-26T12:56:40.882Z,5.30
2023-04-26T12:59:08.102Z,4.22
2023-04-26T13:01:35.119Z,5.45
2023-04-26T13:04:04.813Z,5.72
2023-04-26T13:06:32.485Z,4.00
2023-04-26T13:08:59.711Z,6.22
2023-04-26T13:11:26.712Z,5.07
2023-04-26T13:13:53.699Z,4.47
2023-04-26T13:16:20.887Z,3.90
2023-04-26T13:18:47.969Z,4.80
2023-04-26T13:21:14.977Z,5.60
2023-04-26T13:23:41.910Z,6.22
2023-04-26T13:26:08.993Z,4.57
2023-04-26T13:28:37.122Z,4.95
2023-04-26T13:31:04.383Z,5.95
2023-04-26T13:33:31.450Z,5.85
2023-04-26T13:35:58.605Z,5.15
2023-04-26T13:38:26.941Z,6.60
2023-04-26T13:40:54.247Z,5.13
2023-04-26T13:43:21.332Z,4.18
2023-04-26T13:45:48.308Z,6.35
2023-04-26T13:48:15.633Z,4.95
2023-04-26T13:50:42.899Z,3.83
2023-04-26T13:53:10.072Z,5.47
2023-04-26T13:55:37.002Z,4.97
2023-04-26T13:58:04.138Z,4.50
2023-04-26T14:00:31.230Z,4.88
2023-04-26T14:02:59.409Z,4.47
2023-04-26T14:05:26.615Z,4.72
2023-04-26T14:07:55.098Z,5.65
2023-04-26T14:10:22.595Z,4.93
2023-04-26T14:12:49.594Z,6.28
2023-04-26T14:15:16.746Z,5.78
2023-04-26T14:17:46.673Z,6.63
2023-04-26T14:20:13.743Z,5.07
2023-04-26T14:22:41.032Z,6.28
2023-04-26T14:25:08.408Z,4.22
2023-04-26T14:27:35.591Z,5.38
2023-04-26T14:30:02.562Z,4.40
2023-04-26T14:32:29.496Z,8.75
2023-04-26T14:34:56.521Z,4.25
2023-04-26T14:37:24.005Z,5.30
2023-04-26T14:39:51.572Z,3.72
2023-04-26T14:42:18.686Z,5.75
2023-04-26T14:44:46.525Z,3.22
2023-04-26T14:47:13.529Z,6.53
2023-04-26T14:49:41.138Z,5.03
2023-04-26T14:52:08.165Z,4.93
2023-04-26T14:54:39.327Z,5.78
2023-04-26T14:57:06.521Z,9.07
2023-04-26T14:59:33.604Z,6.53
2023-04-26T15:02:00.786Z,6.68
2023-04-26T15:04:27.943Z,4.90
2023-04-26T15:06:55.153Z,4.10
2023-04-26T15:09:22.380Z,4.90
2023-04-26T15:11:49.264Z,5.78
2023-04-26T15:14:16.308Z,6.80
2023-04-26T15:16:43.399Z,3.28
2023-04-26T15:19:10.753Z,4.40
2023-04-26T15:21:37.756Z,5.00
2023-04-26T15:24:05.255Z,3.42
2023-04-26T15:26:32.789Z,5.30
2023-04-26T15:28:59.710Z,5.70
2023-04-26T15:31:26.902Z,3.63
2023-04-26T15:33:56.530Z,5.70
2023-04-26T15:36:23.543Z,4.30
2023-04-26T15:38:50.590Z,4.80
2023-04-26T15:41:17.544Z,4.68
2023-04-26T15:43:44.454Z,5.00
2023-04-26T15:46:14.687Z,3.88
2023-04-26T15:48:41.656Z,5.57
2023-04-26T15:51:08.571Z,6.38
2023-04-26T15:53:37.572Z,4.28
2023-04-26T15:56:18.868Z,3.60
2023-04-26T15:58:47.215Z,4.07
2023-04-26T16:01:14.983Z,5.78
2023-04-26T16:03:45.506Z,5.82
2023-04-26T16:06:14.485Z,4.18
2023-04-26T16:08:41.619Z,4.55
2023-04-26T16:11:08.714Z,4.72
2023-04-26T16:13:35.904Z,4.43
2023-04-26T16:16:08.002Z,5.05
2023-04-26T16:18:35.415Z,6.22
2023-04-26T16:21:07.205Z,4.90
2023-04-26T16:23:34.249Z,5.82
2023-04-26T16:26:01.572Z,4.75
2023-04-26T16:28:28.495Z,4.47
2023-04-26T16:30:55.903Z,5.75
2023-04-26T16:33:23.615Z,6.40
2023-04-26T16:35:55.428Z,4.85
2023-04-26T16:38:23.379Z,5.68
2023-04-26T16:40:57.472Z,6.28
2023-04-26T16:43:31.894Z,4.88
2023-04-26T16:46:04.560Z,4.30
2023-04-26T16:48:32.862Z,4.47
2023-04-26T16:51:07.111Z,4.75
2023-04-26T16:53:35.056Z,5.15
2023-04-26T16:56:02.037Z,5.18
2023-04-26T16:58:29.077Z,4.68
2023-04-26T17:00:56.383Z,6.20
2023-04-26T17:03:26.679Z,6.53
2023-04-26T17:05:53.897Z,16.10
2023-04-26T17:08:21.012Z,4.13
2023-04-26T17:10:48.628Z,22.83
2023-04-26T17:13:15.865Z,7.20
2023-04-26T17:15:43.521Z,6.50
2023-04-26T17:18:10.998Z,4.45
2023-04-26T17:20:38.152Z,4.22
2023-04-26T17:23:05.408Z,5.60
2023-04-26T17:25:32.396Z,7.25
2023-04-26T17:28:00.185Z,5.68
2023-04-26T17:30:27.366Z,4.90
2023-04-26T17:32:54.438Z,5.47
2023-04-26T17:35:21.478Z,6.15
2023-04-26T17:37:50.439Z,5.85
2023-04-26T17:40:18.528Z,6.75
2023-04-26T17:42:46.543Z,5.32
2023-04-26T17:45:14.420Z,5.72
2023-04-26T17:47:42.534Z,7.43
2023-04-26T17:50:09.826Z,6.85
2023-04-26T17:52:37.239Z,5.03
2023-04-26T17:55:05.961Z,6.13
2023-04-26T17:57:32.912Z,7.65
2023-04-26T17:59:59.879Z,5.57
2023-04-26T18:02:26.930Z,6.70
2023-04-26T18:04:55.027Z,5.40
2023-04-26T18:07:22.132Z,8.43
2023-04-26T18:09:49.161Z,6.15
2023-04-26T18:12:16.343Z,8.27
2023-04-26T18:14:46.123Z,6.38
2023-04-26T18:17:14.378Z,6.72
2023-04-26T18:19:42.426Z,4.38
2023-04-26T18:22:09.471Z,6.25
2023-04-26T18:24:36.642Z,4.75
2023-04-26T18:27:03.711Z,5.97
2023-04-26T18:29:30.827Z,5.13
2023-04-26T18:31:57.874Z,5.03
2023-04-26T18:34:24.842Z,6.20
2023-04-26T18:36:51.805Z,8.05
2023-04-26T18:39:18.956Z,4.43
2023-04-26T18:41:45.998Z,5.32
2023-04-26T18:44:15.948Z,10.80
2023-04-26T18:46:43.367Z,7.40
2023-04-26T18:49:11.099Z,6.22
2023-04-26T18:51:38.133Z,9.95
2023-04-26T18:54:05.250Z,5.90
2023-04-26T18:56:32.235Z,7.88
2023-04-26T18:58:59.225Z,6.78
2023-04-26T19:01:26.249Z,7.47
2023-04-26T19:03:53.440Z,5.43
2023-04-26T19:06:21.114Z,8.75
2023-04-26T19:08:48.205Z,5.88
2023-04-26T19:11:15.280Z,6.03
2023-04-26T19:13:42.773Z,6.55
2023-04-26T19:16:10.437Z,8.77
2023-04-26T19:18:38.035Z,8.63
2023-04-26T19:21:06.506Z,7.40
2023-04-26T19:23:33.872Z,8.35
2023-04-26T19:26:06.081Z,9.60
2023-04-26T19:28:33.282Z,8.85
2023-04-26T19:31:01.479Z,8.38
2023-04-26T19:33:28.601Z,8.40
2023-04-26T19:35:58.360Z,9.50
2023-04-26T19:38:25.666Z,7.72
2023-04-26T19:40:53.123Z,9.18
2023-04-26T19:43:20.873Z,8.68
2023-04-26T19:45:48.078Z,8.90
2023-04-26T19:48:15.399Z,7.50
2023-04-26T19:50:44.209Z,9.40
2023-04-26T19:53:13.206Z,8.68
2023-04-26T19:55:41.414Z,8.68
2023-04-26T19:58:10.423Z,10.98
2023-04-26T20:00:38.827Z,8.30
2023-04-26T20:03:06.707Z,9.65
2023-04-26T20:05:34.140Z,9.55
2023-04-26T20:08:01.861Z,9.20
2023-04-26T20:10:32.344Z,11.32
2023-04-26T20:13:00.685Z,12.30
2023-04-26T20:15:27.937Z,10.80
2023-04-26T20:17:55.160Z,11.80
2023-04-26T20:20:22.273Z,8.55
2023-04-26T20:22:49.389Z,9.40
2023-04-26T20:25:19.604Z,10.48
2023-04-26T20:27:46.963Z,11.05
2023-04-26T20:30:14.661Z,10.98
2023-04-26T20:32:42.159Z,11.13
2023-04-26T20:35:09.645Z,11.50
2023-04-26T20:37:36.640Z,12.55
2023-04-26T20:40:04.636Z,11.05
2023-04-26T20:42:31.575Z,11.13
2023-04-26T20:45:00.499Z,9.05
2023-04-26T20:47:28.949Z,13.13
2023-04-26T20:49:56.079Z,10.70
2023-04-26T20:52:23.060Z,9.88
2023-04-26T20:54:50.141Z,10.30
2023-04-26T20:57:17.274Z,9.32
2023-04-26T20:59:44.212Z,10.95
2023-04-26T21:02:11.533Z,13.18
2023-04-26T21:04:41.652Z,10.38
2023-04-26T21:07:09.929Z,11.43
2023-04-26T21:09:37.297Z,9.88
2023-04-26T21:12:04.533Z,11.65
2023-04-26T21:14:31.707Z,11.90
2023-04-26T21:16:58.745Z,11.98
2023-04-26T21:19:25.899Z,11.50
2023-04-26T21:21:53.007Z,10.82
2023-04-26T21:24:20.013Z,14.35
2023-04-26T21:26:47.114Z,12.38
2023-04-26T21:29:14.070Z,13.98
2023-04-26T21:31:41.222Z,14.25
2023-04-26T21:34:08.205Z,10.98
2023-04-26T21:36:35.972Z,9.73
2023-04-26T21:39:03.568Z,13.30
2023-04-26T21:41:30.543Z,11.48
2023-04-26T21:43:58.642Z,12.68
2023-04-26T21:46:26.200Z,12.52
2023-04-26T21:48:53.235Z,11.23
2023-04-26T21:51:20.177Z,13.85
2023-04-26T21:53:47.133Z,11.23
2023-04-26T21:56:14.874Z,10.95
2023-04-26T21:58:42.341Z,10.82
2023-04-26T22:01:11.379Z,9.65
2023-04-26T22:03:39.163Z,9.70
2023-04-26T22:06:07.675Z,13.05
2023-04-26T22:08:34.847Z,10.90
2023-04-26T22:11:02.718Z,9.77
2023-04-26T22:13:30.755Z,12.25
2023-04-26T22:15:57.785Z,8.38
2023-04-26T22:18:25.938Z,9.15
2023-04-26T22:20:53.594Z,9.30
2023-04-26T22:23:20.958Z,9.50
2023-04-26T22:25:47.858Z,10.45
2023-04-26T22:28:15.926Z,7.60
2023-04-26T22:30:42.854Z,10.63
2023-04-26T22:33:11.055Z,10.32
2023-04-26T22:35:38.357Z,9.05
2023-04-26T22:38:05.294Z,11.27
2023-04-26T22:40:32.670Z,9.15
2023-04-26T22:42:59.885Z,12.13
2023-04-26T22:45:27.099Z,9.88
2023-04-26T22:47:54.083Z,10.88
2023-04-26T22:50:21.596Z,9.88
2023-04-26T22:52:49.752Z,11.60
2023-04-26T22:55:17.330Z,8.73
2023-04-26T22:57:44.952Z,10.43
2023-04-26T23:00:12.626Z,11.38
2023-04-26T23:02:40.110Z,9.23
2023-04-26T23:05:10.811Z,12.80
2023-04-26T23:07:39.548Z,8.85
2023-04-26T23:10:07.041Z,10.00
2023-04-26T23:12:34.164Z,12.15
2023-04-26T23:15:01.890Z,10.82
2023-04-26T23:17:28.923Z,12.07
2023-04-26T23:19:56.475Z,11.77
2023-04-26T23:22:23.395Z,13.30
2023-04-26T23:24:50.529Z,12.60
2023-04-26T23:27:18.807Z,11.60
2023-04-26T23:29:45.732Z,11.90
2023-04-26T23:32:13.119Z,9.20
2023-04-26T23:34:40.029Z,10.35
2023-04-26T23:37:08.247Z,11.32
2023-04-26T23:39:36.369Z,11.80
2023-04-26T23:42:03.935Z,11.70
2023-04-26T23:44:31.024Z,10.93
2023-04-26T23:46:57.943Z,10.98
2023-04-26T23:49:24.953Z,13.80
2023-04-26T23:51:51.889Z,10.98
2023-04-26T23:54:18.964Z,11.93
2023-04-26T23:56:46.508Z,12.18
2023-04-26T23:59:14.136Z,12.23
